Time,TemperatureF,DewpointF,PressureIn,WindDirection,WindDirectionDegrees,WindSpeedMPH,WindSpeedGustMPH,Humidity,HourlyPrecipIn,Conditions,Clouds,dailyrainin,SolarRadiationWatts/m^2,SoftwareType,DateUTC
2013-04-26 00:03:00,73.0,68.0,-100.00,ENE,59,2.0,6.0,85,0.00,,,0.00,0.000000,,2013-04-26 04:03:00,
2013-04-26 00:12:00,73.0,68.0,-100.00,ENE,59,2.0,6.0,85,0.00,,,0.00,0.000000,,2013-04-26 04:12:00,
2013-04-26 00:43:00,73.0,61.0,-100.00,ESE,104,4.0,8.0,67,0.00,,,0.00,0.000000,,2013-04-26 04:43:00,
2013-04-26 00:53:00,73.0,61.0,-100.00,ESE,104,4.0,8.0,67,0.00,,,0.00,0.000000,,2013-04-26 04:53:00,
2013-04-26 01:02:00,73.0,61.0,-100.00,ESE,104,4.0,8.0,67,0.00,,,0.00,0.000000,,2013-04-26 05:02:00,
2013-04-26 01:13:00,73.0,61.0,-100.00,ESE,104,4.0,8.0,67,0.00,,,0.00,0.000000,,2013-04-26 05:13:00,
2013-04-26 01:42:00,72.0,61.0,-100.00,ESE,111,5.0,10.0,68,0.00,,,0.00,0.000000,,2013-04-26 05:42:00,
2013-04-26 01:52:00,72.0,61.0,-100.00,ESE,111,5.0,10.0,68,0.00,,,0.00,0.000000,,2013-04-26 05:52:00,
2013-04-26 02:02:00,72.0,61.0,-100.00,ESE,111,5.0,10.0,68,0.00,,,0.00,0.000000,,2013-04-26 06:02:00,
2013-04-26 02:12:00,72.0,61.0,-100.00,ESE,111,5.0,10.0,68,0.00,,,0.00,0.000000,,2013-04-26 06:12:00,
2013-04-26 02:42:00,71.0,61.0,-100.00,ESE,115,5.0,10.0,71,0.00,,,0.00,0.000000,,2013-04-26 06:42:00,
2013-04-26 02:52:00,71.0,61.0,-100.00,ESE,115,5.0,10.0,71,0.00,,,0.00,0.000000,,2013-04-26 06:52:00,
2013-04-26 03:02:00,71.0,61.0,-100.00,ESE,115,5.0,10.0,71,0.00,,,0.00,0.000000,,2013-04-26 07:02:00,
2013-04-26 03:11:00,71.0,61.0,-100.00,ESE,115,5.0,10.0,71,0.00,,,0.00,0.000000,,2013-04-26 07:11:00,
2013-04-26 03:42:00,70.0,61.0,-100.00,ESE,105,4.0,9.0,74,0.00,,,0.00,0.000000,,2013-04-26 07:42:00,
2013-04-26 03:52:00,70.0,61.0,-100.00,ESE,105,4.0,9.0,74,0.00,,,0.00,0.000000,,2013-04-26 07:52:00,
2013-04-26 04:03:00,70.0,61.0,-100.00,ESE,105,4.0,9.0,74,0.00,,,0.00,0.000000,,2013-04-26 08:03:00,
2013-04-26 04:11:00,70.0,61.0,-100.00,ESE,105,4.0,9.0,74,0.00,,,0.00,0.000000,,2013-04-26 08:11:00,
2013-04-26 04:42:00,67.0,62.0,-100.00,ESE,103,3.0,5.0,83,0.00,,,0.00,0.000000,,2013-04-26 08:42:00,
2013-04-26 04:52:00,67.0,62.0,-100.00,ESE,103,3.0,5.0,83,0.00,,,0.00,0.000000,,2013-04-26 08:52:00,
2013-04-26 05:02:00,67.0,62.0,-100.00,ESE,103,3.0,5.0,83,0.00,,,0.00,0.000000,,2013-04-26 09:02:00,
2013-04-26 05:12:00,67.0,62.0,-100.00,ESE,103,3.0,5.0,83,0.00,,,0.00,0.000000,,2013-04-26 09:12:00,
2013-04-26 05:43:00,63.0,60.0,-100.00,East,83,2.0,3.0,91,0.00,,,0.00,0.000000,,2013-04-26 09:43:00,
2013-04-26 05:53:00,63.0,60.0,-100.00,East,83,2.0,3.0,91,0.00,,,0.00,0.000000,,2013-04-26 09:53:00,
2013-04-26 06:03:00,63.0,60.0,-100.00,East,83,2.0,3.0,91,0.00,,,0.00,0.000000,,2013-04-26 10:03:00,
2013-04-26 06:12:00,63.0,60.0,-100.00,East,83,2.0,3.0,91,0.00,,,0.00,0.000000,,2013-04-26 10:12:00,
2013-04-26 06:42:00,62.0,60.0,-100.00,East,85,0.0,4.0,93,0.00,,,0.00,0.000000,,2013-04-26 10:42:00,
2013-04-26 06:52:00,62.0,60.0,-100.00,East,85,0.0,4.0,93,0.00,,,0.00,0.000000,,2013-04-26 10:52:00,
2013-04-26 07:02:00,62.0,60.0,-100.00,East,85,0.0,4.0,93,0.00,,,0.00,0.000000,,2013-04-26 11:02:00,
2013-04-26 07:11:00,62.0,60.0,-100.00,East,85,0.0,4.0,93,0.00,,,0.00,0.000000,,2013-04-26 11:11:00,
2013-04-26 07:42:00,63.0,61.0,-100.00,NE,35,0.0,4.0,94,0.00,,,0.00,7.000000,,2013-04-26 11:42:00,
2013-04-26 07:52:00,63.0,61.0,-100.00,NE,35,0.0,4.0,94,0.00,,,0.00,7.000000,,2013-04-26 11:52:00,
2013-04-26 08:02:00,63.0,61.0,-100.00,NE,35,0.0,4.0,94,0.00,,,0.00,7.000000,,2013-04-26 12:02:00,
2013-04-26 08:11:00,63.0,61.0,-100.00,NE,35,0.0,4.0,94,0.00,,,0.00,7.000000,,2013-04-26 12:11:00,
2013-04-26 08:42:00,73.0,65.0,-100.00,East,91,4.0,8.0,75,0.00,,,0.00,110.000000,,2013-04-26 12:42:00,
2013-04-26 08:52:00,73.0,65.0,-100.00,East,91,4.0,8.0,75,0.00,,,0.00,110.000000,,2013-04-26 12:52:00,
2013-04-26 09:01:00,73.0,65.0,-100.00,East,91,4.0,8.0,75,0.00,,,0.00,110.000000,,2013-04-26 13:01:00,
2013-04-26 09:11:00,73.0,65.0,-100.00,East,91,4.0,8.0,75,0.00,,,0.00,110.000000,,2013-04-26 13:11:00,
2013-04-26 09:42:00,76.0,61.0,-100.00,ESE,102,5.0,10.0,60,0.00,,,0.00,243.000000,,2013-04-26 13:42:00,
2013-04-26 09:52:00,76.0,61.0,-100.00,ESE,102,5.0,10.0,60,0.00,,,0.00,243.000000,,2013-04-26 13:52:00,
2013-04-26 10:02:00,76.0,61.0,-100.00,ESE,102,5.0,10.0,60,0.00,,,0.00,243.000000,,2013-04-26 14:02:00,
2013-04-26 10:11:00,76.0,61.0,-100.00,ESE,102,5.0,10.0,60,0.00,,,0.00,243.000000,,2013-04-26 14:11:00,
2013-04-26 10:42:00,79.0,62.0,-100.00,ESE,104,5.0,10.0,56,0.00,,,0.00,441.000000,,2013-04-26 14:42:00,
2013-04-26 10:52:00,79.0,62.0,-100.00,ESE,104,5.0,10.0,56,0.00,,,0.00,441.000000,,2013-04-26 14:52:00,
2013-04-26 11:01:00,79.0,62.0,-100.00,ESE,104,5.0,10.0,56,0.00,,,0.00,441.000000,,2013-04-26 15:01:00,
2013-04-26 11:12:00,79.0,62.0,-100.00,ESE,104,5.0,10.0,56,0.00,,,0.00,441.000000,,2013-04-26 15:12:00,
2013-04-26 11:43:00,80.0,61.0,-100.00,NE,53,5.0,11.0,53,0.00,,,0.00,585.000000,,2013-04-26 15:43:00,
2013-04-26 11:53:00,80.0,61.0,-100.00,NE,53,5.0,11.0,53,0.00,,,0.00,585.000000,,2013-04-26 15:53:00,
2013-04-26 12:03:00,80.0,61.0,-100.00,NE,53,5.0,11.0,53,0.00,,,0.00,585.000000,,2013-04-26 16:03:00,
2013-04-26 12:13:00,80.0,61.0,-100.00,NE,53,5.0,11.0,53,0.00,,,0.00,585.000000,,2013-04-26 16:13:00,
2013-04-26 12:42:00,82.0,61.0,-100.00,NNE,12,4.0,13.0,49,0.00,,,0.00,695.000000,,2013-04-26 16:42:00,
2013-04-26 12:53:00,82.0,61.0,-100.00,NNE,12,4.0,13.0,49,0.00,,,0.00,695.000000,,2013-04-26 16:53:00,
2013-04-26 13:02:00,82.0,61.0,-100.00,NNE,12,4.0,13.0,49,0.00,,,0.00,695.000000,,2013-04-26 17:02:00,
2013-04-26 13:12:00,82.0,61.0,-100.00,NNE,12,4.0,13.0,49,0.00,,,0.00,695.000000,,2013-04-26 17:12:00,
2013-04-26 13:42:00,84.0,62.0,-100.00,NE,51,6.0,14.0,47,0.00,,,0.00,755.000000,,2013-04-26 17:42:00,
2013-04-26 13:52:00,84.0,62.0,-100.00,NE,51,6.0,14.0,47,0.00,,,0.00,755.000000,,2013-04-26 17:52:00,
2013-04-26 14:02:00,84.0,62.0,-100.00,NE,51,6.0,14.0,47,0.00,,,0.00,755.000000,,2013-04-26 18:02:00,
2013-04-26 14:12:00,84.0,62.0,-100.00,NE,51,6.0,14.0,47,0.00,,,0.00,755.000000,,2013-04-26 18:12:00,
2013-04-26 14:42:00,85.0,62.0,-100.00,NE,49,8.0,15.0,47,0.00,,,0.00,674.000000,,2013-04-26 18:42:00,
2013-04-26 14:52:00,85.0,62.0,-100.00,NE,49,8.0,15.0,47,0.00,,,0.00,674.000000,,2013-04-26 18:52:00,
2013-04-26 15:02:00,85.0,62.0,-100.00,NE,49,8.0,15.0,47,0.00,,,0.00,674.000000,,2013-04-26 19:02:00,
2013-04-26 15:12:00,85.0,62.0,-100.00,NE,49,8.0,15.0,47,0.00,,,0.00,674.000000,,2013-04-26 19:12:00,
2013-04-26 15:42:00,83.0,65.0,-100.00,NW,311,4.0,19.0,54,0.00,,,0.00,614.000000,,2013-04-26 19:42:00,
2013-04-26 15:52:00,83.0,65.0,-100.00,NW,311,4.0,19.0,54,0.00,,,0.00,614.000000,,2013-04-26 19:52:00,
2013-04-26 16:02:00,83.0,65.0,-100.00,NW,311,4.0,19.0,54,0.00,,,0.00,614.000000,,2013-04-26 20:02:00,
2013-04-26 16:11:00,83.0,65.0,-100.00,NW,311,4.0,19.0,54,0.00,,,0.00,614.000000,,2013-04-26 20:11:00,
2013-04-26 16:42:00,87.0,61.0,-100.00,ENE,73,7.0,15.0,42,0.00,,,0.00,605.000000,,2013-04-26 20:42:00,
2013-04-26 16:52:00,87.0,61.0,-100.00,ENE,73,7.0,15.0,42,0.00,,,0.00,605.000000,,2013-04-26 20:52:00,
2013-04-26 17:02:00,87.0,61.0,-100.00,ENE,73,7.0,15.0,42,0.00,,,0.00,605.000000,,2013-04-26 21:02:00,
2013-04-26 17:11:00,87.0,61.0,-100.00,ENE,73,7.0,15.0,42,0.00,,,0.00,605.000000,,2013-04-26 21:11:00,
2013-04-26 17:42:00,87.0,60.0,-100.00,East,89,9.0,18.0,40,0.00,,,0.00,506.000000,,2013-04-26 21:42:00,
2013-04-26 17:53:00,87.0,60.0,-100.00,East,89,9.0,18.0,40,0.00,,,0.00,506.000000,,2013-04-26 21:53:00,
2013-04-26 18:03:00,87.0,60.0,-100.00,East,89,9.0,18.0,40,0.00,,,0.00,506.000000,,2013-04-26 22:03:00,
2013-04-26 18:13:00,87.0,60.0,-100.00,East,89,9.0,18.0,40,0.00,,,0.00,506.000000,,2013-04-26 22:13:00,
2013-04-26 18:42:00,86.0,61.0,-100.00,East,81,8.0,16.0,43,0.00,,,0.00,314.000000,,2013-04-26 22:42:00,
2013-04-26 18:52:00,86.0,61.0,-100.00,East,81,8.0,16.0,43,0.00,,,0.00,314.000000,,2013-04-26 22:52:00,
2013-04-26 19:02:00,86.0,61.0,-100.00,East,81,8.0,16.0,43,0.00,,,0.00,314.000000,,2013-04-26 23:02:00,
2013-04-26 19:12:00,86.0,61.0,-100.00,East,81,8.0,16.0,43,0.00,,,0.00,314.000000,,2013-04-26 23:12:00,
2013-04-26 19:42:00,80.0,68.0,-100.00,North,4,5.0,14.0,67,0.00,,,0.00,140.000000,,2013-04-26 23:42:00,
2013-04-26 19:52:00,80.0,68.0,-100.00,North,4,5.0,14.0,67,0.00,,,0.00,140.000000,,2013-04-26 23:52:00,
2013-04-26 20:01:00,80.0,68.0,-100.00,North,4,5.0,14.0,67,0.00,,,0.00,140.000000,,2013-04-27 00:01:00,
2013-04-26 20:11:00,80.0,68.0,-100.00,North,4,5.0,14.0,67,0.00,,,0.00,140.000000,,2013-04-27 00:11:00,
2013-04-26 20:42:00,80.0,60.0,-100.00,East,85,6.0,10.0,50,0.00,,,0.00,16.000000,,2013-04-27 00:42:00,
2013-04-26 20:52:00,80.0,60.0,-100.00,East,85,6.0,10.0,50,0.00,,,0.00,16.000000,,2013-04-27 00:52:00,
2013-04-26 21:01:00,80.0,60.0,-100.00,East,85,6.0,10.0,50,0.00,,,0.00,16.000000,,2013-04-27 01:01:00,
2013-04-26 21:12:00,80.0,60.0,-100.00,East,85,6.0,10.0,50,0.00,,,0.00,16.000000,,2013-04-27 01:12:00,
2013-04-26 21:42:00,78.0,59.0,-100.00,East,92,4.0,10.0,53,0.00,,,0.00,0.000000,,2013-04-27 01:42:00,
2013-04-26 21:52:00,78.0,59.0,-100.00,East,92,4.0,10.0,53,0.00,,,0.00,0.000000,,2013-04-27 01:52:00,
2013-04-26 22:02:00,78.0,59.0,-100.00,East,92,4.0,10.0,53,0.00,,,0.00,0.000000,,2013-04-27 02:02:00,
2013-04-26 22:11:00,78.0,59.0,-100.00,East,92,4.0,10.0,53,0.00,,,0.00,0.000000,,2013-04-27 02:11:00,
2013-04-26 22:42:00,77.0,61.0,-100.00,East,99,4.0,9.0,58,0.00,,,0.00,0.000000,,2013-04-27 02:42:00,
2013-04-26 22:52:00,77.0,61.0,-100.00,East,99,4.0,9.0,58,0.00,,,0.00,0.000000,,2013-04-27 02:52:00,
2013-04-26 23:02:00,77.0,61.0,-100.00,East,99,4.0,9.0,58,0.00,,,0.00,0.000000,,2013-04-27 03:02:00,
2013-04-26 23:11:00,77.0,61.0,-100.00,East,99,4.0,9.0,58,0.00,,,0.00,0.000000,,2013-04-27 03:11:00,
2013-04-26 23:43:00,76.0,62.0,-100.00,ESE,107,6.0,13.0,62,0.00,,,0.00,0.000000,,2013-04-27 03:43:00,
2013-04-26 23:53:00,76.0,62.0,-100.00,ESE,107,6.0,13.0,62,0.00,,,0.00,0.000000,,2013-04-27 03:53:00,